createdAt,value
2022-11-25T00:00:33.429Z,101236.59
2022-11-25T00:02:59.876Z,101234.03
2022-11-25T00:05:26.805Z,101238.34
2022-11-25T00:07:53.283Z,101238.34
2022-11-25T00:10:19.804Z,101234.03
2022-11-25T00:12:46.229Z,101230.56
2022-11-25T00:15:12.575Z,101231.44
2022-11-25T00:17:39.186Z,101222.78
2022-11-25T00:20:06.145Z,101220.22
2022-11-25T00:22:32.662Z,101219.31
2022-11-25T00:24:59.214Z,101223.66
2022-11-25T00:27:25.554Z,101222.81
2022-11-25T00:29:53.242Z,101223.69
2022-11-25T00:32:19.769Z,101219.34
2022-11-25T00:34:46.175Z,101223.69
2022-11-25T00:37:12.637Z,101223.69
2022-11-25T00:39:38.967Z,101230.63
2022-11-25T00:42:24.002Z,101223.72
2022-11-25T00:44:50.430Z,101224.56
2022-11-25T00:47:20.291Z,101227.16
2022-11-25T00:49:48.738Z,101223.69
2022-11-25T00:52:17.344Z,101234.06
2022-11-25T00:54:47.604Z,101232.31
2022-11-25T00:57:15.223Z,101226.25
2022-11-25T00:59:41.631Z,101223.63
2022-11-25T01:02:08.253Z,101221.03
2022-11-25T01:04:35.201Z,101214.13
2022-11-25T01:07:02.174Z,101215.84
2022-11-25T01:09:29.050Z,101211.53
2022-11-25T01:11:55.422Z,101208.94
2022-11-25T01:14:23.076Z,101202.84
2022-11-25T01:16:51.410Z,101206.31
2022-11-25T01:19:19.140Z,101206.34
2022-11-25T01:21:46.911Z,101213.28
2022-11-25T01:24:15.365Z,101208.06
2022-11-25T01:26:42.655Z,101208.06
2022-11-25T01:29:15.120Z,101209.78
2022-11-25T01:31:42.568Z,101215.00
2022-11-25T01:34:21.186Z,101206.34
2022-11-25T01:36:48.148Z,101209.81
2022-11-25T01:39:20.420Z,101209.78
2022-11-25T01:41:47.871Z,101205.47
2022-11-25T01:44:25.417Z,101194.22
2022-11-25T01:47:16.993Z,101198.56
2022-11-25T01:49:53.897Z,101198.56
2022-11-25T01:52:28.873Z,101195.09
2022-11-25T01:55:08.975Z,101189.91
2022-11-25T01:57:59.350Z,101181.28
2022-11-25T02:00:25.796Z,101183.88
2022-11-25T02:02:54.878Z,101185.59
2022-11-25T02:05:33.646Z,101192.53
2022-11-25T02:08:00.875Z,101183.03
2022-11-25T02:10:30.557Z,101186.47
2022-11-25T02:12:59.258Z,101183.88
2022-11-25T02:15:26.596Z,101193.41
2022-11-25T02:17:53.218Z,101190.81
2022-11-25T02:20:23.830Z,101196.88
2022-11-25T02:23:16.010Z,101199.47
2022-11-25T02:25:45.503Z,101195.16
2022-11-25T02:28:17.174Z,101197.72
2022-11-25T02:30:44.539Z,101189.06
2022-11-25T02:33:11.857Z,101196.88
2022-11-25T02:35:43.138Z,101191.66
2022-11-25T02:38:15.305Z,101189.91
2022-11-25T02:40:47.603Z,101192.53
2022-11-25T02:43:14.762Z,101198.59
2022-11-25T02:46:00.148Z,101201.19
2022-11-25T02:48:52.896Z,101201.16
2022-11-25T02:51:17.244Z,101206.38
2022-11-25T02:53:44.083Z,101199.44
2022-11-25T02:56:12.724Z,101203.78
2022-11-25T02:58:39.799Z,101193.38
2022-11-25T03:01:08.315Z,101197.72
2022-11-25T03:03:35.874Z,101200.31
2022-11-25T03:06:02.770Z,101196.00
2022-11-25T03:08:29.214Z,101199.44
2022-11-25T03:10:55.773Z,101208.09
2022-11-25T03:13:22.311Z,101204.63
2022-11-25T03:15:48.682Z,101202.03
2022-11-25T03:18:15.159Z,101199.41
2022-11-25T03:20:41.917Z,101205.50
2022-11-25T03:23:08.376Z,101205.47
2022-11-25T03:25:35.921Z,101205.47
2022-11-25T03:28:03.551Z,101202.84
2022-11-25T03:30:30.446Z,101199.38
2022-11-25T03:32:59.264Z,101191.59
2022-11-25T03:35:26.897Z,101193.31
2022-11-25T03:37:53.405Z,101202.00
2022-11-25T03:40:19.893Z,101200.25
2022-11-25T03:42:46.473Z,101202.84
2022-11-25T03:45:14.780Z,101205.44
2022-11-25T03:47:43.318Z,101202.81
2022-11-25T03:50:12.541Z,101195.94
2022-11-25T03:52:39.526Z,101202.84
2022-11-25T03:55:08.389Z,101195.06
2022-11-25T03:57:36.157Z,101202.84
2022-11-25T04:00:04.417Z,101208.03
2022-11-25T04:02:44.442Z,101210.63
2022-11-25T04:05:12.499Z,101210.66
2022-11-25T04:07:39.727Z,101213.22
2022-11-25T04:10:08.391Z,101217.53
2022-11-25T04:12:47.459Z,101213.22
2022-11-25T04:15:18.623Z,101214.06
2022-11-25T04:17:49.708Z,101211.47
2022-11-25T04:20:16.267Z,101209.75
2022-11-25T04:22:46.262Z,101207.16
2022-11-25T04:25:12.791Z,101215.81
2022-11-25T04:27:39.334Z,101208.03
2022-11-25T04:30:07.009Z,101202.84
2022-11-25T04:32:38.149Z,101188.97
2022-11-25T04:35:06.286Z,101197.63
2022-11-25T04:37:33.250Z,101192.44
2022-11-25T04:39:59.727Z,101188.97
2022-11-25T04:42:32.890Z,101204.56
2022-11-25T04:47:52.990Z,101198.50
2022-11-25T04:50:22.323Z,101198.50
2022-11-25T04:52:55.590Z,101203.72
2022-11-25T04:55:23.005Z,101201.97
2022-11-25T04:57:50.197Z,101202.81
2022-11-25T05:00:17.042Z,101202.81
2022-11-25T05:02:43.615Z,101206.28
2022-11-25T05:05:18.272Z,101205.41
2022-11-25T05:07:45.219Z,101202.00
2022-11-25T05:10:12.677Z,101202.84
2022-11-25T05:12:43.812Z,101202.81
2022-11-25T05:15:15.414Z,101205.41
2022-11-25T05:17:44.740Z,101206.28
2022-11-25T05:20:11.607Z,101205.41
2022-11-25T05:22:38.403Z,101208.84
2022-11-25T05:25:07.054Z,101207.09
2022-11-25T05:27:38.425Z,101208.84
2022-11-25T05:30:08.930Z,101201.91
2022-11-25T05:32:35.390Z,101211.44
2022-11-25T05:35:07.013Z,101214.88
2022-11-25T05:37:34.103Z,101210.53
2022-11-25T05:40:04.698Z,101206.22
2022-11-25T05:42:43.453Z,101212.28
2022-11-25T05:45:11.176Z,101202.72
2022-11-25T05:47:38.779Z,101196.66
2022-11-25T05:50:07.013Z,101199.25
2022-11-25T05:52:33.994Z,101206.16
2022-11-25T05:55:01.563Z,101211.34
2022-11-25T05:57:29.197Z,101210.44
2022-11-25T06:00:00.599Z,101201.78
2022-11-25T06:02:43.753Z,101207.81
2022-11-25T06:05:13.150Z,101208.69
2022-11-25T06:07:39.809Z,101201.75
2022-11-25T06:10:07.311Z,101208.69
2022-11-25T06:12:35.994Z,101199.16
2022-11-25T06:15:03.511Z,101196.53
2022-11-25T06:17:30.525Z,101195.69
2022-11-25T06:20:09.425Z,101189.59
2022-11-25T06:22:35.870Z,101189.63
2022-11-25T06:25:04.120Z,101192.22
2022-11-25T06:27:56.834Z,101195.69
2022-11-25T06:30:20.582Z,101200.91
2022-11-25T06:33:00.001Z,101198.28
2022-11-25T06:35:26.778Z,101197.44
2022-11-25T06:37:59.235Z,101207.84
2022-11-25T06:40:25.843Z,101208.75
2022-11-25T06:42:52.228Z,101202.69
2022-11-25T06:45:20.548Z,101211.31
2022-11-25T06:47:46.995Z,101208.75
2022-11-25T06:50:13.343Z,101207.88
2022-11-25T06:52:39.849Z,101209.59
2022-11-25T06:55:06.495Z,101208.72
2022-11-25T06:57:32.859Z,101214.78
2022-11-25T06:59:59.287Z,101220.84
2022-11-25T07:02:25.825Z,101219.97
2022-11-25T07:04:52.243Z,101217.34
2022-11-25T07:07:18.631Z,101215.63
2022-11-25T07:09:45.198Z,101219.06
2022-11-25T07:12:12.337Z,101223.41
2022-11-25T07:14:39.048Z,101220.81
2022-11-25T07:17:11.600Z,101220.78
2022-11-25T07:19:38.505Z,101216.44
2022-11-25T07:22:04.953Z,101209.47
2022-11-25T07:24:31.384Z,101219.84
2022-11-25T07:26:57.836Z,101230.25
2022-11-25T07:32:11.143Z,101237.16
2022-11-25T07:34:37.822Z,101244.13
2022-11-25T07:37:04.254Z,101235.47
2022-11-25T07:39:30.869Z,101235.41
2022-11-25T07:41:57.414Z,101242.31
2022-11-25T07:44:23.802Z,101249.28
2022-11-25T07:47:00.753Z,101246.69
2022-11-25T07:49:28.434Z,101254.41
2022-11-25T07:51:57.547Z,101257.03
2022-11-25T07:54:24.331Z,101256.16
2022-11-25T07:56:51.591Z,101254.38
2022-11-25T07:59:21.182Z,101248.28
2022-11-25T08:01:55.512Z,101248.25
2022-11-25T08:04:23.139Z,101243.97
2022-11-25T08:06:51.902Z,101246.53
2022-11-25T08:09:21.638Z,101254.31
2022-11-25T08:11:49.202Z,101262.09
2022-11-25T08:14:16.459Z,101269.84
2022-11-25T08:16:43.222Z,101272.47
2022-11-25T08:19:13.627Z,101266.38
2022-11-25T08:21:40.294Z,101263.75
2022-11-25T08:24:06.873Z,101254.16
2022-11-25T08:26:39.597Z,101252.41
2022-11-25T08:29:07.191Z,101262.78
2022-11-25T08:31:36.750Z,101258.44
2022-11-25T08:34:04.961Z,101262.75
2022-11-25T08:36:32.117Z,101271.38
2022-11-25T08:39:00.031Z,101261.88
2022-11-25T08:41:32.528Z,101263.59
2022-11-25T08:44:00.951Z,101260.97
2022-11-25T08:46:30.045Z,101261.81
2022-11-25T08:48:56.832Z,101260.06
2022-11-25T08:51:26.861Z,101261.78
2022-11-25T08:53:53.830Z,101266.06
2022-11-25T08:56:25.993Z,101266.91
2022-11-25T08:58:54.232Z,101266.91
2022-11-25T09:01:22.359Z,101259.97
2022-11-25T09:03:51.674Z,101265.13
2022-11-25T09:06:18.799Z,101254.72
2022-11-25T09:08:46.120Z,101266.88
2022-11-25T09:11:13.491Z,101267.81
2022-11-25T09:13:40.091Z,101274.72
2022-11-25T09:16:07.392Z,101266.03
2022-11-25T09:18:35.277Z,101276.41
2022-11-25T09:21:09.702Z,101282.50
2022-11-25T09:23:38.407Z,101285.97
2022-11-25T09:26:06.346Z,101290.25
2022-11-25T09:28:32.994Z,101291.97
2022-11-25T09:30:59.497Z,101299.78
2022-11-25T09:33:25.898Z,101299.81
2022-11-25T09:35:52.487Z,101305.88
2022-11-25T09:38:18.848Z,101304.19
2022-11-25T09:40:53.747Z,101302.50
2022-11-25T09:44:03.503Z,101307.72
2022-11-25T09:46:41.844Z,101309.44
2022-11-25T09:49:45.599Z,101309.44
2022-11-25T09:52:17.605Z,101306.84
2022-11-25T09:55:06.764Z,101305.97
2022-11-25T09:57:56.478Z,101312.91
2022-11-25T10:00:33.534Z,101311.19
2022-11-25T10:03:05.791Z,101311.22
2022-11-25T10:05:41.746Z,101314.69
2022-11-25T10:08:23.279Z,101312.19
2022-11-25T10:11:02.973Z,101320.88
2022-11-25T10:13:50.025Z,101314.84
2022-11-25T10:16:27.635Z,101313.91
2022-11-25T10:19:06.217Z,101318.28
2022-11-25T10:21:32.558Z,101313.91
2022-11-25T10:23:59.178Z,101322.59
2022-11-25T10:26:31.941Z,101326.03
2022-11-25T10:29:13.568Z,101324.28
2022-11-25T10:31:42.428Z,101333.81
2022-11-25T10:34:24.254Z,101319.03
2022-11-25T10:36:52.925Z,101322.47
2022-11-25T10:39:26.975Z,101322.56
2022-11-25T10:42:04.667Z,101323.44
2022-11-25T10:44:39.835Z,101327.69
2022-11-25T10:47:32.023Z,101326.78
2022-11-25T10:50:26.457Z,101321.47
2022-11-25T10:53:21.526Z,101321.47
2022-11-25T10:56:12.390Z,101332.69
2022-11-25T10:58:42.305Z,101337.03
2022-11-25T11:01:23.172Z,101331.78
2022-11-25T11:04:05.724Z,101332.66
2022-11-25T11:06:36.374Z,101335.28
2022-11-25T11:09:03.762Z,101335.28
2022-11-25T11:11:30.714Z,101336.16
2022-11-25T11:14:20.318Z,101333.53
2022-11-25T11:16:57.202Z,101334.41
2022-11-25T11:19:27.123Z,101334.47
2022-11-25T11:21:56.400Z,101333.59
2022-11-25T11:24:34.313Z,101342.28
2022-11-25T11:27:05.193Z,101338.78
2022-11-25T11:29:32.101Z,101339.63
2022-11-25T11:32:01.605Z,101342.22
2022-11-25T11:34:55.386Z,101342.16
2022-11-25T11:37:38.703Z,101343.88
2022-11-25T11:40:17.363Z,101334.28
2022-11-25T11:42:50.405Z,101339.47
2022-11-25T11:45:48.223Z,101343.81
2022-11-25T11:48:29.414Z,101341.16
2022-11-25T11:51:14.351Z,101341.22
2022-11-25T11:53:51.154Z,101345.53
2022-11-25T11:56:39.345Z,101355.06
2022-11-25T11:59:19.344Z,101356.00
2022-11-25T12:02:04.433Z,101360.38
2022-11-25T12:04:41.817Z,101364.72
2022-11-25T12:07:31.289Z,101362.94
2022-11-25T12:10:06.309Z,101364.66
2022-11-25T12:12:38.604Z,101373.41
2022-11-25T12:15:16.843Z,101362.22
2022-11-25T12:17:54.489Z,101364.81
2022-11-25T12:20:38.622Z,101357.81
2022-11-25T12:23:24.976Z,101360.38
2022-11-25T12:25:57.604Z,101356.00
2022-11-25T12:28:39.213Z,101351.66
2022-11-25T12:31:16.401Z,101355.06
2022-11-25T12:34:07.638Z,101357.63
2022-11-25T12:36:35.324Z,101355.03
2022-11-25T12:39:24.221Z,101361.97
2022-11-25T12:41:59.343Z,101362.81
2022-11-25T12:44:31.150Z,101361.03
2022-11-25T12:46:58.319Z,101369.66
2022-11-25T12:49:30.125Z,101360.88
2022-11-25T12:52:21.255Z,101361.69
2022-11-25T12:55:04.360Z,101364.28
2022-11-25T12:57:57.004Z,101372.06
2022-11-25T13:01:00.207Z,101367.78
2022-11-25T13:04:13.024Z,101374.72
2022-11-25T13:07:21.274Z,101379.94
2022-11-25T13:10:14.192Z,101377.34
2022-11-25T13:12:57.841Z,101373.88
2022-11-25T13:15:38.047Z,101389.56
2022-11-25T13:18:14.233Z,101386.06
2022-11-25T13:20:47.147Z,101389.47
2022-11-25T13:23:16.752Z,101380.75
2022-11-25T13:25:46.797Z,101393.78
2022-11-25T13:28:32.864Z,101394.63
2022-11-25T13:31:21.381Z,101406.75
2022-11-25T13:33:47.843Z,101394.59
2022-11-25T13:36:20.062Z,101397.22
2022-11-25T13:38:49.803Z,101392.84
2022-11-25T13:41:16.099Z,101405.88
2022-11-25T13:44:01.784Z,101405.84
2022-11-25T13:46:45.365Z,101402.38
2022-11-25T13:49:37.523Z,101404.03
2022-11-25T13:52:12.951Z,101408.38
2022-11-25T13:54:45.969Z,101406.63
2022-11-25T13:57:12.231Z,101413.56
2022-11-25T14:00:01.021Z,101409.19
2022-11-25T14:02:27.689Z,101415.25
2022-11-25T14:05:06.682Z,101420.47
2022-11-25T14:07:58.203Z,101426.53
2022-11-25T14:10:41.473Z,101429.09
2022-11-25T14:13:35.968Z,101431.69
2022-11-25T14:16:43.511Z,101436.06
2022-11-25T14:19:43.211Z,101436.06
2022-11-25T14:22:09.708Z,101449.09
2022-11-25T14:24:36.030Z,101447.31
2022-11-25T14:27:04.465Z,101445.56
2022-11-25T14:29:40.433Z,101450.72
2022-11-25T14:32:22.687Z,101451.59
2022-11-25T14:34:59.641Z,101455.03
2022-11-25T14:37:42.458Z,101455.88
2022-11-25T14:40:21.080Z,101460.22
2022-11-25T14:42:51.975Z,101459.34
2022-11-25T14:45:30.954Z,101477.63
2022-11-25T14:47:57.553Z,101466.34
2022-11-25T14:50:34.728Z,101465.47
2022-11-25T14:53:06.561Z,101466.34
2022-11-25T14:55:32.967Z,101478.53
2022-11-25T14:57:59.602Z,101479.41
2022-11-25T15:00:26.277Z,101485.50
2022-11-25T15:03:01.359Z,101493.31
2022-11-25T15:05:37.918Z,101493.31
2022-11-25T15:08:13.138Z,101488.13
2022-11-25T15:10:51.336Z,101497.69
2022-11-25T15:13:32.662Z,101495.06
2022-11-25T15:16:08.246Z,101500.28
2022-11-25T15:18:35.586Z,101500.25
2022-11-25T15:21:03.089Z,101501.97
2022-11-25T15:23:34.512Z,101503.72
2022-11-25T15:26:02.250Z,101503.72
2022-11-25T15:28:36.476Z,101505.47
2022-11-25T15:31:12.561Z,101517.63
2022-11-25T15:33:40.343Z,101515.88
2022-11-25T15:36:06.964Z,101520.25
2022-11-25T15:38:37.265Z,101520.22
2022-11-25T15:41:05.527Z,101521.06
2022-11-25T15:43:44.571Z,101524.56
2022-11-25T15:46:11.100Z,101529.75
2022-11-25T15:48:47.211Z,101530.63
2022-11-25T15:51:20.037Z,101528.00
2022-11-25T15:53:53.306Z,101529.72
2022-11-25T15:56:23.412Z,101530.59
2022-11-25T15:58:50.009Z,101533.22
2022-11-25T16:01:17.100Z,101531.47
2022-11-25T16:03:44.927Z,101537.56
2022-11-25T16:06:19.425Z,101536.69
2022-11-25T16:09:00.836Z,101546.28
2022-11-25T16:11:33.051Z,101541.91
2022-11-25T16:14:30.739Z,101546.28
2022-11-25T16:17:02.798Z,101548.88
2022-11-25T16:19:38.500Z,101563.66
2022-11-25T16:22:05.640Z,101558.41
2022-11-25T16:24:48.787Z,101563.63
2022-11-25T16:27:25.597Z,101565.34
2022-11-25T16:29:57.808Z,101569.69
2022-11-25T16:32:26.951Z,101581.84
2022-11-25T16:34:56.708Z,101582.72
2022-11-25T16:37:23.857Z,101584.47
2022-11-25T16:39:50.197Z,101587.94
2022-11-25T16:42:21.850Z,101589.66
2022-11-25T16:44:50.878Z,101591.41
2022-11-25T16:47:20.057Z,101596.59
2022-11-25T16:49:46.928Z,101607.91
2022-11-25T16:52:14.164Z,101603.53
2022-11-25T16:54:41.811Z,101607.88
2022-11-25T16:57:16.101Z,101613.09
2022-11-25T16:59:44.529Z,101612.22
2022-11-25T17:02:18.503Z,101609.63
2022-11-25T17:04:46.166Z,101620.06
2022-11-25T17:07:32.859Z,101609.63
2022-11-25T17:09:59.834Z,101613.09
2022-11-25T17:12:30.362Z,101619.19
2022-11-25T17:14:59.698Z,101620.91
2022-11-25T17:17:27.007Z,101619.16
2022-11-25T17:19:53.747Z,101629.59
2022-11-25T17:22:22.963Z,101633.06
2022-11-25T17:24:49.350Z,101621.75
2022-11-25T17:27:33.846Z,101629.56
2022-11-25T17:30:03.953Z,101627.81
2022-11-25T17:32:31.202Z,101636.50
2022-11-25T17:34:57.606Z,101647.81
2022-11-25T17:37:25.464Z,101644.34
2022-11-25T17:39:53.412Z,101644.34
2022-11-25T17:42:26.520Z,101661.78
2022-11-25T17:44:54.357Z,101652.19
2022-11-25T17:47:21.091Z,101661.75
2022-11-25T17:49:48.199Z,101665.22
2022-11-25T17:52:14.586Z,101659.16
2022-11-25T17:54:41.752Z,101663.50
2022-11-25T17:57:14.089Z,101660.88
2022-11-25T17:59:40.981Z,101666.13
2022-11-25T18:02:18.933Z,101670.44
2022-11-25T18:04:45.728Z,101673.06
2022-11-25T18:07:12.155Z,101685.25
2022-11-25T18:09:38.651Z,101687.00
2022-11-25T18:12:10.588Z,101689.63
2022-11-25T18:14:37.982Z,101693.09
2022-11-25T18:17:07.475Z,101693.97
2022-11-25T18:19:34.653Z,101694.81
2022-11-25T18:22:10.808Z,101695.69
2022-11-25T18:24:37.549Z,101699.16
2022-11-25T18:27:05.801Z,101707.00
2022-11-25T18:29:32.492Z,101703.50
2022-11-25T18:31:59.607Z,101709.59
2022-11-25T18:34:26.745Z,101713.13
2022-11-25T18:36:53.650Z,101712.22
2022-11-25T18:39:20.467Z,101717.47
2022-11-25T18:41:47.877Z,101724.44
2022-11-25T18:44:37.821Z,101726.19
2022-11-25T18:47:05.455Z,101733.13
2022-11-25T18:49:31.862Z,101735.75
2022-11-25T18:51:58.239Z,101731.38
2022-11-25T18:54:24.634Z,101735.75
2022-11-25T18:56:52.099Z,101743.59
2022-11-25T18:59:26.767Z,101743.59
2022-11-25T19:01:54.253Z,101748.81
2022-11-25T19:04:20.658Z,101754.03
2022-11-25T19:06:47.081Z,101746.19
2022-11-25T19:09:13.547Z,101754.03
2022-11-25T19:11:45.592Z,101754.91
2022-11-25T19:14:23.603Z,101760.13
2022-11-25T19:16:50.138Z,101761.84
2022-11-25T19:19:16.898Z,101772.28
2022-11-25T19:21:43.562Z,101766.22
2022-11-25T19:24:13.158Z,101764.47
2022-11-25T19:26:52.197Z,101769.69
2022-11-25T19:29:42.304Z,101777.53
2022-11-25T19:32:26.234Z,101773.16
2022-11-25T19:35:03.348Z,101777.50
2022-11-25T19:37:32.840Z,101785.34
2022-11-25T19:39:59.187Z,101786.22
2022-11-25T19:42:25.812Z,101795.78
2022-11-25T19:44:52.902Z,101795.78
2022-11-25T19:47:22.024Z,101803.66
2022-11-25T19:49:50.961Z,101798.41
2022-11-25T19:52:20.577Z,101807.97
2022-11-25T19:54:47.543Z,101810.56
2022-11-25T19:57:20.470Z,101807.91
2022-11-25T19:59:47.671Z,101824.44
2022-11-25T20:02:22.646Z,101827.97
2022-11-25T20:04:52.430Z,101830.56
2022-11-25T20:07:20.291Z,101827.94
2022-11-25T20:09:47.527Z,101833.16
2022-11-25T20:12:23.739Z,101839.25
2022-11-25T20:14:50.766Z,101842.75
2022-11-25T20:17:29.524Z,101847.09
2022-11-25T20:19:59.972Z,101841.03
2022-11-25T20:22:32.432Z,101850.59
2022-11-25T20:25:02.258Z,101851.41
2022-11-25T20:27:29.285Z,101857.50
2022-11-25T20:29:55.855Z,101860.09
2022-11-25T20:32:28.000Z,101862.75
2022-11-25T20:34:58.272Z,101865.34
2022-11-25T20:37:26.302Z,101867.94
2022-11-25T20:39:55.901Z,101872.31
2022-11-25T20:42:23.095Z,101877.50
2022-11-25T20:44:52.121Z,101881.88
2022-11-25T20:47:24.424Z,101881.88
2022-11-25T20:49:50.781Z,101889.72
2022-11-25T20:52:26.718Z,101888.88
2022-11-25T20:54:53.070Z,101896.66
2022-11-25T20:57:19.399Z,101891.41
2022-11-25T20:59:46.086Z,101894.03
2022-11-25T21:02:12.545Z,101904.47
2022-11-25T21:04:39.287Z,101900.09
2022-11-25T21:07:07.013Z,101904.47
2022-11-25T21:09:35.699Z,101907.06
2022-11-25T21:12:03.181Z,101911.44
2022-11-25T21:14:30.055Z,101914.91
2022-11-25T21:16:56.502Z,101912.28
2022-11-25T21:19:22.967Z,101916.63
2022-11-25T21:21:50.732Z,101922.72
2022-11-25T21:24:28.776Z,101926.19
2022-11-25T21:26:56.854Z,101933.16
2022-11-25T21:29:23.339Z,101939.25
2022-11-25T21:31:49.740Z,101941.00
2022-11-25T21:34:16.206Z,101949.72
2022-11-25T21:36:45.207Z,101950.59
2022-11-25T21:39:26.778Z,101950.59
2022-11-25T21:41:54.222Z,101966.28
2022-11-25T21:44:32.798Z,101961.06
2022-11-25T21:46:59.222Z,101960.22
2022-11-25T21:49:26.482Z,101968.03
2022-11-25T21:51:52.942Z,101969.81
2022-11-25T21:54:19.427Z,101970.66
2022-11-25T21:56:46.226Z,101974.16
2022-11-25T21:59:18.659Z,101978.50
2022-11-25T22:01:47.066Z,101979.38
2022-11-25T22:04:19.502Z,101981.97
2022-11-25T22:06:46.879Z,101981.97
2022-11-25T22:09:14.085Z,101988.97
2022-11-25T22:11:47.564Z,101996.81
2022-11-25T22:14:27.707Z,101990.72
2022-11-25T22:16:55.966Z,101992.50
2022-11-25T22:19:25.932Z,101990.78
2022-11-25T22:21:52.440Z,101996.88
2022-11-25T22:24:19.987Z,101992.56
2022-11-25T22:26:51.275Z,102003.03
2022-11-25T22:29:22.552Z,102002.16
2022-11-25T22:31:49.753Z,101998.69
2022-11-25T22:34:21.893Z,102005.66
2022-11-25T22:36:49.299Z,102006.53
2022-11-25T22:39:21.330Z,102012.66
2022-11-25T22:41:50.728Z,102010.03
2022-11-25T22:44:45.768Z,102013.53
2022-11-25T22:47:39.089Z,102018.75
2022-11-25T22:50:16.805Z,102020.53
2022-11-25T22:52:43.161Z,102024.00
2022-11-25T22:55:27.783Z,102027.50
2022-11-25T22:57:56.388Z,102026.63
2022-11-25T23:00:28.782Z,102024.00
2022-11-25T23:02:57.118Z,102034.47
2022-11-25T23:05:33.302Z,102037.94
2022-11-25T23:08:02.460Z,102040.56
2022-11-25T23:10:30.879Z,102044.94
2022-11-25T23:12:57.247Z,102045.78
2022-11-25T23:15:24.652Z,102043.19
2022-11-25T23:17:54.857Z,102051.91
2022-11-25T23:20:26.738Z,102050.16
2022-11-25T23:22:53.398Z,102053.66
2022-11-25T23:25:21.667Z,102057.13
2022-11-25T23:27:48.083Z,102061.47
2022-11-25T23:30:20.405Z,102062.34
2022-11-25T23:32:50.070Z,102068.44
2022-11-25T23:35:18.801Z,102078.91
2022-11-25T23:37:50.311Z,102069.31
2022-11-25T23:40:21.340Z,102084.09
2022-11-25T23:42:48.194Z,102075.41
2022-11-25T23:45:17.103Z,102079.75
2022-11-25T23:47:46.338Z,102092.78
2022-11-25T23:50:26.734Z,102095.41
2022-11-25T23:52:57.993Z,102101.50
2022-11-25T23:55:28.782Z,102100.63
2022-11-25T23:57:55.671Z,102104.97
